Time;durP1;ratioP1;P1;durP2;ratioP2;P2;SDS_P1;SDS_P2;PMS_P1;PMS_P2;Temp;Humidity;BMP_temperature;BMP_pressure;BME280_temperature;BME280_humidity;BME280_pressure;Samples;Min_cycle;Max_cycle;Signal;HPM_P1;HPM_P2
2021/06/27 00:00:20;;;;;;;5.85;3.10;;;15.90;82.00;;;;;;5026241;28;20172;-76
2021/06/27 00:02:46;;;;;;;4.85;3.70;;;15.70;83.70;;;;;;5028154;28;20124;-75
2021/06/27 00:05:15;;;;;;;4.70;3.40;;;15.70;83.80;;;;;;5029200;28;20508;-76
2021/06/27 00:07:41;;;;;;;4.07;2.97;;;15.70;83.30;;;;;;5023724;28;20112;-76
2021/06/27 00:10:12;;;;;;;1.92;1.60;;;15.70;82.70;;;;;;5025759;28;20026;-76
2021/06/27 00:12:39;;;;;;;1.80;1.70;;;15.50;81.40;;;;;;5020766;28;20026;-77
2021/06/27 00:15:10;;;;;;;2.50;2.25;;;15.40;82.90;;;;;;5028115;28;20029;-77
2021/06/27 00:17:36;;;;;;;2.97;2.60;;;15.50;83.80;;;;;;5027336;28;20034;-76
2021/06/27 00:20:16;;;;;;;4.32;3.17;;;15.50;84.20;;;;;;5023837;28;20034;-76
2021/06/27 00:22:42;;;;;;;3.47;2.55;;;15.40;84.50;;;;;;5015100;28;20109;-76
2021/06/27 00:25:10;;;;;;;2.83;2.42;;;15.40;83.80;;;;;;5009334;28;20159;-77
2021/06/27 00:27:39;;;;;;;3.78;3.45;;;15.50;84.40;;;;;;5025364;28;20022;-77
2021/06/27 00:30:09;;;;;;;6.70;4.03;;;15.30;85.50;;;;;;5026429;28;20030;-77
2021/06/27 00:32:35;;;;;;;4.07;3.40;;;15.20;86.40;;;;;;5024524;28;20029;-76
2021/06/27 00:35:03;;;;;;;4.43;3.58;;;15.20;85.90;;;;;;5023722;28;20030;-77
2021/06/27 00:37:29;;;;;;;6.15;4.05;;;15.10;84.90;;;;;;5025574;28;20108;-75
2021/06/27 00:39:54;;;;;;;6.65;3.88;;;15.00;86.50;;;;;;5026378;28;20176;-77
2021/06/27 00:42:20;;;;;;;4.00;3.60;;;14.90;87.00;;;;;;5025100;28;20385;-77
2021/06/27 00:44:45;;;;;;;8.88;4.28;;;15.00;86.80;;;;;;5029998;28;20025;-76
2021/06/27 00:47:11;;;;;;;3.38;3.08;;;15.00;86.40;;;;;;5029282;28;20029;-77
2021/06/27 00:49:37;;;;;;;3.35;2.90;;;15.10;85.20;;;;;;5032584;28;20404;-77
2021/06/27 00:52:03;;;;;;;6.15;2.80;;;15.10;84.30;;;;;;5025939;28;20547;-77
2021/06/27 00:54:28;;;;;;;6.13;3.47;;;15.10;83.70;;;;;;5025888;28;20432;-76
2021/06/27 00:56:54;;;;;;;3.88;3.13;;;15.10;83.80;;;;;;5027530;28;20063;-77
2021/06/27 00:59:19;;;;;;;4.53;3.92;;;15.20;84.70;;;;;;5029115;28;20022;-76
2021/06/27 01:01:45;;;;;;;3.40;3.10;;;15.10;85.50;;;;;;5019517;28;20571;-76
2021/06/27 01:04:10;;;;;;;4.68;3.55;;;15.20;84.70;;;;;;5027870;28;20022;-77
2021/06/27 01:06:36;;;;;;;3.97;3.35;;;15.10;84.80;;;;;;5029264;28;20029;-76
2021/06/27 01:09:03;;;;;;;6.72;3.88;;;15.10;85.50;;;;;;5026998;28;20021;-77
2021/06/27 01:11:28;;;;;;;5.63;3.47;;;15.10;85.50;;;;;;5023403;28;20060;-77
2021/06/27 01:13:54;;;;;;;4.53;2.95;;;15.00;85.00;;;;;;5021083;28;20029;-77
2021/06/27 01:16:20;;;;;;;4.82;2.50;;;15.00;83.80;;;;;;5024032;28;20049;-76
2021/06/27 01:18:51;;;;;;;2.65;2.45;;;15.00;83.50;;;;;;5025761;28;20061;-76
2021/06/27 01:21:17;;;;;;;2.75;2.55;;;14.80;85.10;;;;;;5026315;28;20033;-76
2021/06/27 01:23:42;;;;;;;2.38;2.17;;;14.70;85.60;;;;;;5028989;28;20048;-77
2021/06/27 01:26:08;;;;;;;2.30;2.10;;;14.80;85.30;;;;;;5029470;28;20030;-77
2021/06/27 01:28:34;;;;;;;2.38;2.17;;;14.90;84.90;;;;;;5023827;28;20030;-77
2021/06/27 01:30:59;;;;;;;3.17;2.90;;;14.90;84.10;;;;;;5026954;28;20049;-77
2021/06/27 01:33:25;;;;;;;4.43;3.40;;;14.80;84.90;;;;;;5027849;28;20032;-76
2021/06/27 01:35:51;;;;;;;8.75;3.67;;;14.80;85.60;;;;;;5026951;28;20029;-76
2021/06/27 01:38:17;;;;;;;4.97;3.60;;;14.80;85.80;;;;;;5017482;28;20952;-76
2021/06/27 01:40:44;;;;;;;3.72;2.80;;;14.80;85.60;;;;;;5021321;28;20059;-76
2021/06/27 01:43:17;;;;;;;4.65;2.38;;;14.80;84.60;;;;;;5024981;28;20026;-76
2021/06/27 01:45:45;;;;;;;4.75;3.40;;;14.80;84.60;;;;;;5027852;28;20022;-76
2021/06/27 01:48:11;;;;;;;3.83;2.97;;;14.60;86.30;;;;;;5022589;28;20101;-77
2021/06/27 01:50:41;;;;;;;3.67;3.25;;;14.70;85.70;;;;;;5027632;28;20557;-76
2021/06/27 01:53:10;;;;;;;4.95;3.45;;;14.60;85.90;;;;;;5025846;28;20502;-76
2021/06/27 01:55:35;;;;;;;5.40;3.20;;;14.60;86.30;;;;;;5025992;28;20021;-76
2021/06/27 01:58:01;;;;;;;5.15;3.60;;;14.60;86.10;;;;;;5023331;28;20560;-76
2021/06/27 02:00:29;;;;;;;6.10;4.32;;;14.50;87.00;;;;;;5025049;28;20021;-77
2021/06/27 02:02:56;;;;;;;5.80;3.83;;;14.40;87.90;;;;;;5026379;28;20041;-77
2021/06/27 02:05:23;;;;;;;5.13;4.00;;;14.30;88.10;;;;;;5027245;28;20276;-76
2021/06/27 02:07:48;;;;;;;6.40;3.60;;;14.40;87.70;;;;;;5026905;28;20028;-77
2021/06/27 02:10:19;;;;;;;4.75;3.72;;;14.50;87.40;;;;;;5025919;28;20026;-77
2021/06/27 02:12:46;;;;;;;6.88;3.90;;;14.40;88.10;;;;;;5024053;28;20030;-77
2021/06/27 02:15:14;;;;;;;4.80;3.50;;;14.30;88.40;;;;;;5027324;28;20033;-76
2021/06/27 02:17:49;;;;;;;5.20;4.05;;;14.30;88.30;;;;;;5024089;28;20104;-76
2021/06/27 02:20:15;;;;;;;4.25;3.33;;;14.30;87.10;;;;;;5024959;28;20090;-75
2021/06/27 02:22:41;;;;;;;6.13;3.60;;;14.30;87.10;;;;;;5025080;28;20021;-77
2021/06/27 02:25:07;;;;;;;4.75;4.13;;;14.30;87.40;;;;;;5025662;28;20016;-76
2021/06/27 02:27:33;;;;;;;5.22;3.88;;;14.40;87.50;;;;;;5024045;28;20057;-76
2021/06/27 02:29:58;;;;;;;4.75;3.17;;;14.40;86.50;;;;;;5025195;28;20060;-76
2021/06/27 02:32:24;;;;;;;4.13;3.15;;;14.30;86.10;;;;;;5024339;28;20045;-76
2021/06/27 02:34:49;;;;;;;3.47;3.10;;;14.20;86.10;;;;;;5020807;28;20033;-76
2021/06/27 02:37:15;;;;;;;3.13;2.78;;;14.20;87.00;;;;;;5026422;28;20072;-76
2021/06/27 02:39:41;;;;;;;3.92;3.22;;;14.20;86.40;;;;;;5019041;28;20034;-76
2021/06/27 02:42:06;;;;;;;4.70;3.30;;;14.20;87.40;;;;;;5023270;28;20026;-76
2021/06/27 02:44:32;;;;;;;3.55;2.90;;;14.20;87.30;;;;;;5021936;28;20079;-76
2021/06/27 02:46:58;;;;;;;2.10;1.90;;;14.20;85.70;;;;;;5024585;28;20076;-77
2021/06/27 02:49:23;;;;;;;4.47;3.25;;;14.20;85.20;;;;;;5022845;28;20025;-76
2021/06/27 02:51:49;;;;;;;4.40;3.72;;;14.10;86.00;;;;;;5022426;28;20052;-76
2021/06/27 02:54:15;;;;;;;4.57;3.70;;;14.10;86.70;;;;;;5022917;28;20042;-76
2021/06/27 02:56:41;;;;;;;3.08;2.53;;;14.10;87.20;;;;;;5024145;28;20626;-77
2021/06/27 02:59:06;;;;;;;2.55;2.25;;;14.10;85.90;;;;;;5022526;28;20021;-76
2021/06/27 03:01:32;;;;;;;1.70;1.60;;;14.10;85.10;;;;;;5024852;28;20045;-77
2021/06/27 03:03:58;;;;;;;4.60;2.88;;;14.10;84.80;;;;;;5027208;28;20017;-77
2021/06/27 03:06:23;;;;;;;3.17;2.33;;;14.10;86.60;;;;;;5028940;28;20024;-77
2021/06/27 03:08:49;;;;;;;3.53;3.05;;;14.10;86.10;;;;;;5026533;28;20642;-77
2021/06/27 03:11:15;;;;;;;2.20;2.00;;;14.10;85.80;;;;;;5028338;28;20455;-77
2021/06/27 03:13:42;;;;;;;2.00;1.80;;;14.10;85.80;;;;;;5026351;28;20029;-77
2021/06/27 03:16:08;;;;;;;2.40;2.20;;;14.10;85.60;;;;;;5023675;28;20112;-76
2021/06/27 03:18:35;;;;;;;1.95;1.33;;;14.10;85.80;;;;;;5025333;28;20042;-78
2021/06/27 03:21:01;;;;;;;1.52;1.42;;;14.10;85.30;;;;;;5027932;28;20056;-76
2021/06/27 03:23:27;;;;;;;4.15;1.90;;;14.10;84.90;;;;;;5026632;28;20033;-77
2021/06/27 03:25:53;;;;;;;1.60;1.50;;;13.90;84.80;;;;;;5026978;28;20040;-77
2021/06/27 03:28:20;;;;;;;2.05;1.85;;;13.80;85.30;;;;;;5024655;28;20503;-77
2021/06/27 03:30:46;;;;;;;1.80;1.70;;;13.80;85.60;;;;;;5023019;28;20037;-77
2021/06/27 03:33:11;;;;;;;1.75;1.65;;;13.90;85.70;;;;;;5026514;28;20048;-76
2021/06/27 03:35:37;;;;;;;4.10;1.75;;;13.90;86.10;;;;;;5024948;28;20116;-77
2021/06/27 03:40:29;;;;;;;1.98;1.88;;;13.80;88.10;;;;;;5025940;28;20025;-77
2021/06/27 03:42:55;;;;;;;2.60;2.40;;;13.80;88.00;;;;;;5036849;28;20096;-77
2021/06/27 03:45:20;;;;;;;2.97;2.38;;;13.80;88.40;;;;;;5024505;28;20029;-77
2021/06/27 03:47:46;;;;;;;2.40;2.20;;;13.80;88.80;;;;;;5024586;28;20043;-76
2021/06/27 03:50:12;;;;;;;2.97;2.78;;;13.90;88.80;;;;;;5025871;28;20060;-77
2021/06/27 03:52:38;;;;;;;2.95;2.58;;;14.00;89.20;;;;;;5028129;28;20013;-76
2021/06/27 03:55:07;;;;;;;4.00;2.55;;;13.90;89.10;;;;;;5022139;28;20361;-76
2021/06/27 03:57:33;;;;;;;4.53;2.85;;;14.00;89.20;;;;;;5025030;28;20038;-77
2021/06/27 03:59:59;;;;;;;3.95;3.08;;;14.10;89.80;;;;;;5023350;28;20466;-77
2021/06/27 04:02:24;;;;;;;4.82;2.95;;;14.20;90.30;;;;;;5025748;28;20068;-77
2021/06/27 04:04:50;;;;;;;3.80;3.20;;;14.30;89.80;;;;;;5024541;28;20025;-78
2021/06/27 04:07:16;;;;;;;3.55;3.08;;;14.30;89.30;;;;;;5022809;28;20022;-77
2021/06/27 04:09:41;;;;;;;3.65;2.90;;;14.40;88.80;;;;;;5026381;28;20022;-77
2021/06/27 04:12:07;;;;;;;3.20;2.60;;;14.40;87.80;;;;;;5026015;28;20033;-77
2021/06/27 04:14:33;;;;;;;4.60;2.70;;;14.50;87.10;;;;;;5027322;28;20029;-77
2021/06/27 04:16:59;;;;;;;2.70;2.45;;;14.50;87.50;;;;;;5023646;28;20439;-77
2021/06/27 04:19:24;;;;;;;5.57;2.70;;;14.60;87.10;;;;;;5024053;28;20120;-77
2021/06/27 04:21:50;;;;;;;3.25;2.95;;;14.70;87.10;;;;;;5027338;28;20044;-78
2021/06/27 04:24:16;;;;;;;3.78;2.50;;;14.70;87.10;;;;;;5026227;28;20029;-77
2021/06/27 04:26:41;;;;;;;2.75;2.47;;;14.80;87.60;;;;;;5023843;28;20096;-77
2021/06/27 04:29:12;;;;;;;3.45;2.83;;;14.80;87.60;;;;;;5021817;28;20076;-77
2021/06/27 04:31:39;;;;;;;5.13;2.67;;;14.90;87.80;;;;;;5021471;28;20057;-78
2021/06/27 04:34:05;;;;;;;3.70;2.65;;;14.90;88.00;;;;;;5026715;28;20132;-77
2021/06/27 04:36:31;;;;;;;3.50;2.88;;;15.00;87.50;;;;;;5027458;28;20085;-78
2021/06/27 04:38:57;;;;;;;5.07;3.25;;;15.00;89.80;;;;;;5027644;28;20040;-77
2021/06/27 04:41:22;;;;;;;4.13;3.50;;;15.00;90.20;;;;;;5026568;28;20033;-78
2021/06/27 04:43:48;;;;;;;5.35;3.70;;;15.00;90.50;;;;;;5028036;28;20045;-78
2021/06/27 04:46:13;;;;;;;4.68;3.40;;;15.10;90.80;;;;;;5026806;28;20073;-77
2021/06/27 04:48:39;;;;;;;5.38;3.72;;;15.10;91.10;;;;;;5024416;28;20030;-77
2021/06/27 04:51:05;;;;;;;8.10;4.65;;;15.10;91.20;;;;;;5027579;28;20040;-77
2021/06/27 04:53:30;;;;;;;6.00;3.78;;;15.20;91.10;;;;;;5022850;28;20163;-77
2021/06/27 04:55:58;;;;;;;9.52;4.55;;;15.30;91.10;;;;;;5025609;28;20052;-77
2021/06/27 04:58:25;;;;;;;6.88;5.43;;;15.40;91.30;;;;;;5025858;28;20017;-78
2021/06/27 05:00:51;;;;;;;7.97;5.50;;;15.50;91.20;;;;;;5026408;28;20029;-78
2021/06/27 05:03:16;;;;;;;6.95;5.07;;;15.50;91.60;;;;;;5024940;28;20026;-77
2021/06/27 05:05:42;;;;;;;6.32;4.25;;;15.50;91.40;;;;;;5024819;28;20037;-76
2021/06/27 05:08:08;;;;;;;6.47;4.38;;;15.50;91.40;;;;;;5026631;28;20029;-77
2021/06/27 05:10:33;;;;;;;8.05;5.53;;;15.50;91.50;;;;;;5022254;28;20407;-77
2021/06/27 05:12:59;;;;;;;6.22;5.03;;;15.60;91.60;;;;;;5026155;28;20029;-78
2021/06/27 05:15:25;;;;;;;7.07;4.85;;;15.60;91.40;;;;;;5025769;28;20731;-77
2021/06/27 05:17:50;;;;;;;6.82;5.53;;;15.70;91.20;;;;;;5023821;28;20061;-77
2021/06/27 05:20:16;;;;;;;8.48;5.10;;;15.80;91.00;;;;;;5023978;28;20075;-77
2021/06/27 05:22:42;;;;;;;6.78;5.53;;;15.90;90.70;;;;;;5023890;28;20045;-77
2021/06/27 05:25:08;;;;;;;7.68;5.72;;;15.90;90.70;;;;;;5026200;28;20022;-77
2021/06/27 05:27:34;;;;;;;8.77;5.50;;;16.00;90.60;;;;;;5024482;28;21894;-77
2021/06/27 05:29:59;;;;;;;9.05;6.25;;;16.10;90.70;;;;;;5022737;28;20087;-77
2021/06/27 05:32:25;;;;;;;10.40;5.70;;;16.10;91.00;;;;;;5020641;28;20550;-77
2021/06/27 05:34:51;;;;;;;8.52;6.30;;;16.20;90.80;;;;;;5025143;28;20029;-76
2021/06/27 05:37:16;;;;;;;10.00;6.53;;;16.20;91.00;;;;;;5024088;28;20075;-78
2021/06/27 05:39:42;;;;;;;7.85;6.03;;;16.30;90.80;;;;;;5024615;28;20136;-78
2021/06/27 05:42:07;;;;;;;10.60;6.35;;;16.40;90.80;;;;;;5023293;28;20203;-78
2021/06/27 05:44:33;;;;;;;8.85;6.65;;;16.40;90.80;;;;;;5025509;28;20045;-77
2021/06/27 05:46:59;;;;;;;9.93;7.18;;;16.50;90.80;;;;;;5023552;28;20143;-77
2021/06/27 05:49:24;;;;;;;10.57;6.13;;;16.60;91.50;;;;;;5025115;28;20484;-77
2021/06/27 05:51:50;;;;;;;9.38;6.78;;;16.70;90.70;;;;;;5024939;28;20052;-78
2021/06/27 05:54:15;;;;;;;8.73;6.43;;;16.80;90.90;;;;;;5024680;28;20033;-77
2021/06/27 05:56:41;;;;;;;9.27;6.43;;;16.90;90.30;;;;;;5024301;28;20377;-77
2021/06/27 05:59:07;;;;;;;8.60;6.40;;;16.90;90.50;;;;;;5023300;28;20150;-78
2021/06/27 06:01:33;;;;;;;10.27;7.20;;;17.00;89.70;;;;;;5024534;28;20067;-77
2021/06/27 06:03:58;;;;;;;9.95;6.47;;;17.00;90.40;;;;;;5022676;28;20017;-76
2021/06/27 06:06:24;;;;;;;8.13;6.30;;;17.00;89.40;;;;;;5024080;28;20522;-77
2021/06/27 06:08:50;;;;;;;9.35;6.25;;;17.10;89.90;;;;;;5023799;28;20076;-77
2021/06/27 06:11:17;;;;;;;10.18;7.07;;;17.10;89.80;;;;;;5025499;28;20033;-77
2021/06/27 06:13:43;;;;;;;9.13;6.53;;;17.10;90.00;;;;;;5023035;28;20553;-77
2021/06/27 06:16:09;;;;;;;10.32;6.63;;;17.20;90.50;;;;;;5022996;28;20112;-77
2021/06/27 06:18:36;;;;;;;9.93;6.90;;;17.20;90.50;;;;;;5026147;28;20400;-77
2021/06/27 06:21:03;;;;;;;11.75;7.20;;;17.30;90.80;;;;;;5023038;28;20034;-77
2021/06/27 06:23:28;;;;;;;8.38;6.70;;;17.30;90.10;;;;;;5023008;28;20397;-77
2021/06/27 06:25:54;;;;;;;9.07;6.85;;;17.40;90.30;;;;;;5022016;28;20033;-77
2021/06/27 06:28:20;;;;;;;10.27;6.72;;;17.40;90.30;;;;;;5024815;28;21055;-76
2021/06/27 06:30:46;;;;;;;11.10;7.43;;;17.40;90.00;;;;;;5023414;28;20054;-77
2021/06/27 06:33:11;;;;;;;9.40;6.85;;;17.50;90.10;;;;;;5026000;28;20161;-78
2021/06/27 06:35:42;;;;;;;10.80;7.13;;;17.50;90.10;;;;;;5028289;28;20029;-77
2021/06/27 06:38:08;;;;;;;10.27;6.60;;;17.50;90.10;;;;;;5024089;28;20392;-78
2021/06/27 06:40:34;;;;;;;8.40;6.57;;;17.50;90.50;;;;;;5025905;28;20026;-77
2021/06/27 06:43:00;;;;;;;10.77;7.20;;;17.60;90.00;;;;;;5028176;28;20048;-78
2021/06/27 06:45:26;;;;;;;9.02;6.50;;;17.60;90.00;;;;;;5024107;28;20225;-77
2021/06/27 06:47:52;;;;;;;10.32;6.80;;;17.60;90.20;;;;;;5027859;28;20037;-77
2021/06/27 06:50:17;;;;;;;10.65;6.72;;;17.70;89.50;;;;;;5028595;28;20064;-77
2021/06/27 06:52:43;;;;;;;9.45;6.30;;;17.80;90.40;;;;;;5027070;28;20047;-78
2021/06/27 06:55:09;;;;;;;8.25;6.65;;;17.90;90.50;;;;;;5027034;28;20523;-78
2021/06/27 06:57:35;;;;;;;9.23;6.05;;;18.00;90.20;;;;;;5027717;28;20021;-77
2021/06/27 07:00:01;;;;;;;10.02;6.65;;;18.10;89.40;;;;;;5024515;28;20037;-78
2021/06/27 07:02:26;;;;;;;8.15;5.80;;;18.20;89.10;;;;;;5026216;28;20041;-77
2021/06/27 07:04:52;;;;;;;8.75;6.75;;;18.30;86.30;;;;;;5026648;28;20440;-77
2021/06/27 07:07:17;;;;;;;7.15;5.50;;;18.50;88.00;;;;;;5023598;28;20048;-77
2021/06/27 07:09:43;;;;;;;10.60;6.28;;;18.60;86.00;;;;;;5024481;28;20055;-78
2021/06/27 07:12:09;;;;;;;8.75;6.03;;;18.70;85.30;;;;;;5027686;28;20030;-78
2021/06/27 07:14:35;;;;;;;7.30;5.93;;;18.80;86.40;;;;;;5027240;28;20087;-77
2021/06/27 07:17:01;;;;;;;6.40;5.32;;;19.00;85.50;;;;;;5024370;28;20041;-78
2021/06/27 07:19:26;;;;;;;6.60;4.82;;;19.10;83.50;;;;;;5029609;28;20026;-77
2021/06/27 07:21:52;;;;;;;6.70;5.03;;;19.20;81.90;;;;;;5033323;28;20040;-77
2021/06/27 07:24:17;;;;;;;7.30;5.05;;;19.40;81.50;;;;;;5029080;28;20397;-77
2021/06/27 07:26:44;;;;;;;6.22;5.30;;;19.40;82.00;;;;;;5030654;28;20116;-78
2021/06/27 07:29:09;;;;;;;7.93;5.07;;;19.60;80.10;;;;;;5029727;28;20029;-77
2021/06/27 07:31:35;;;;;;;6.13;5.05;;;19.60;79.40;;;;;;5029982;28;20123;-77
2021/06/27 07:34:00;;;;;;;6.45;4.57;;;19.80;78.60;;;;;;5030502;28;20065;-78
2021/06/27 07:36:26;;;;;;;5.22;4.55;;;19.80;80.10;;;;;;5029724;28;20033;-77
2021/06/27 07:38:52;;;;;;;5.18;3.80;;;20.00;78.40;;;;;;5030627;28;20040;-76
2021/06/27 07:41:18;;;;;;;4.60;3.88;;;20.10;75.90;;;;;;5028761;28;20536;-78
2021/06/27 07:43:43;;;;;;;4.55;3.58;;;20.20;72.90;;;;;;5028629;28;20075;-76
2021/06/27 07:46:09;;;;;;;6.82;4.20;;;20.30;76.50;;;;;;5029629;28;20496;-77
2021/06/27 07:48:35;;;;;;;3.70;3.30;;;20.40;74.00;;;;;;5025208;28;20053;-76
2021/06/27 07:51:00;;;;;;;4.07;3.55;;;20.50;73.10;;;;;;5025537;28;20037;-76
2021/06/27 07:53:27;;;;;;;4.33;3.53;;;20.60;69.90;;;;;;5024833;28;20053;-77
2021/06/27 07:55:53;;;;;;;3.83;2.90;;;20.60;73.50;;;;;;5026227;28;20039;-76
2021/06/27 07:58:19;;;;;;;3.47;2.90;;;20.80;69.40;;;;;;5029240;28;20503;-76
2021/06/27 08:00:44;;;;;;;2.85;2.50;;;20.90;68.70;;;;;;5027274;28;20033;-76
2021/06/27 08:03:10;;;;;;;2.80;2.60;;;21.10;66.40;;;;;;5029369;28;20033;-77
2021/06/27 08:05:36;;;;;;;3.65;2.40;;;21.20;67.10;;;;;;5024731;28;20021;-77
2021/06/27 08:08:01;;;;;;;2.80;2.50;;;21.20;68.00;;;;;;5026901;28;20431;-76
2021/06/27 08:10:27;;;;;;;2.70;2.20;;;21.20;67.30;;;;;;5026519;28;20129;-76
2021/06/27 08:12:53;;;;;;;4.00;2.53;;;21.20;66.00;;;;;;5026536;28;20567;-77
2021/06/27 08:15:19;;;;;;;2.50;2.30;;;21.30;67.20;;;;;;5026856;28;20038;-76
2021/06/27 08:17:50;;;;;;;3.38;2.22;;;21.50;65.70;;;;;;5029293;28;20436;-77
2021/06/27 08:20:18;;;;;;;2.47;2.28;;;21.60;63.60;;;;;;5027751;28;20052;-76
2021/06/27 08:22:43;;;;;;;2.83;2.55;;;21.70;66.60;;;;;;5027565;28;20025;-77
2021/06/27 08:25:10;;;;;;;2.60;2.40;;;21.80;67.70;;;;;;5028616;28;20033;-76
2021/06/27 08:27:37;;;;;;;3.05;2.58;;;21.80;62.10;;;;;;5028907;28;20053;-77
2021/06/27 08:30:06;;;;;;;3.60;2.97;;;21.90;65.40;;;;;;5029471;28;20026;-76
2021/06/27 08:32:32;;;;;;;2.60;2.38;;;21.90;66.70;;;;;;5021690;28;20033;-77
2021/06/27 08:34:58;;;;;;;2.85;2.60;;;22.10;64.10;;;;;;5028495;28;20500;-77
2021/06/27 08:37:24;;;;;;;5.80;2.72;;;22.20;65.80;;;;;;5026151;28;20025;-76
2021/06/27 08:39:49;;;;;;;2.92;2.60;;;22.30;66.00;;;;;;5028199;28;21657;-76
2021/06/27 08:42:20;;;;;;;4.78;2.80;;;22.30;64.30;;;;;;5025753;28;20033;-76
2021/06/27 08:44:47;;;;;;;3.70;3.03;;;22.40;62.70;;;;;;5028209;28;20037;-76
2021/06/27 08:47:17;;;;;;;3.30;2.92;;;22.40;64.20;;;;;;5029811;28;20155;-77
2021/06/27 08:49:50;;;;;;;4.40;3.53;;;22.40;63.60;;;;;;5027108;28;20042;-77
2021/06/27 08:52:18;;;;;;;4.18;2.53;;;22.50;66.00;;;;;;5026907;28;20030;-77
2021/06/27 08:54:45;;;;;;;5.05;2.53;;;22.60;62.20;;;;;;5028103;28;20024;-76
2021/06/27 08:57:12;;;;;;;3.75;2.70;;;22.60;60.70;;;;;;5025061;28;20044;-75
2021/06/27 08:59:39;;;;;;;;;;;22.70;60.90;;;;;;5027168;28;20045;-76
2021/06/27 09:02:05;;;;;;;2.63;2.42;;;22.60;59.40;;;;;;5024360;28;19925;-77
2021/06/27 09:04:33;;;;;;;2.85;2.55;;;22.60;60.70;;;;;;5029952;28;20053;-75
2021/06/27 09:07:29;;;;;;;3.75;2.65;;;22.80;61.20;;;;;;5027578;28;20377;-75
2021/06/27 09:09:56;;;;;;;2.67;2.35;;;22.90;63.10;;;;;;5021189;28;20049;-77
2021/06/27 09:12:23;;;;;;;3.72;2.63;;;23.10;59.50;;;;;;5023210;28;20030;-78
2021/06/27 09:14:51;;;;;;;2.80;2.60;;;23.10;61.10;;;;;;5019868;28;20033;-78
2021/06/27 09:17:23;;;;;;;3.90;2.22;;;23.30;62.20;;;;;;5026049;28;20389;-76
2021/06/27 09:19:54;;;;;;;2.90;2.50;;;23.30;62.00;;;;;;5022333;28;20032;-75
2021/06/27 09:22:26;;;;;;;2.13;2.03;;;23.40;58.80;;;;;;5027825;28;20029;-76
2021/06/27 09:24:53;;;;;;;2.42;2.22;;;23.50;59.50;;;;;;5024363;28;20053;-76
2021/06/27 09:27:24;;;;;;;2.53;2.10;;;23.50;58.30;;;;;;5027694;28;20022;-77
2021/06/27 09:29:51;;;;;;;1.83;1.73;;;23.40;56.00;;;;;;5023560;28;20025;-77
2021/06/27 09:32:19;;;;;;;2.13;2.00;;;23.50;56.00;;;;;;5016831;28;20041;-77
2021/06/27 09:34:44;;;;;;;;;;;23.50;58.00;;;;;;5025794;28;20377;-76
2021/06/27 09:37:13;;;;;;;2.10;1.90;;;23.50;55.30;;;;;;5020660;28;19932;-76
2021/06/27 09:39:59;;;;;;;3.08;1.88;;;23.50;56.20;;;;;;5017933;28;20032;-77
2021/06/27 09:42:26;;;;;;;2.30;2.10;;;23.70;57.10;;;;;;5024668;28;20040;-76
2021/06/27 09:45:04;;;;;;;2.20;2.03;;;23.70;56.40;;;;;;5019511;28;20045;-77
2021/06/27 09:47:30;;;;;;;2.38;2.03;;;23.80;58.10;;;;;;5024302;28;20406;-77
2021/06/27 09:49:56;;;;;;;2.90;2.17;;;24.00;59.30;;;;;;5025686;28;20112;-77
2021/06/27 09:52:36;;;;;;;3.22;2.00;;;24.10;58.40;;;;;;5023834;28;20104;-77
2021/06/27 09:55:14;;;;;;;2.30;2.10;;;24.20;56.10;;;;;;5021036;28;20028;-76
2021/06/27 09:57:41;;;;;;;2.20;2.00;;;24.30;54.70;;;;;;5015445;28;20076;-77
2021/06/27 10:00:25;;;;;;;2.10;1.90;;;24.40;56.10;;;;;;5015568;28;20041;-76
2021/06/27 10:03:05;;;;;;;2.33;2.13;;;24.40;53.50;;;;;;5020948;28;20187;-77
2021/06/27 10:05:33;;;;;;;2.40;2.20;;;24.50;56.90;;;;;;5019460;28;20044;-76
2021/06/27 10:07:59;;;;;;;2.50;2.30;;;24.60;55.60;;;;;;5017042;28;20044;-76
2021/06/27 10:10:25;;;;;;;2.30;2.17;;;24.60;55.30;;;;;;5015263;28;20484;-76
2021/06/27 10:12:50;;;;;;;2.20;2.10;;;24.60;55.50;;;;;;5021092;28;20072;-76
2021/06/27 10:15:16;;;;;;;3.10;1.98;;;24.70;52.80;;;;;;5015213;28;20467;-76
2021/06/27 10:17:44;;;;;;;2.13;1.73;;;24.70;53.80;;;;;;5019182;28;20595;-76
2021/06/27 10:20:12;;;;;;;2.28;1.95;;;24.70;51.60;;;;;;5015922;28;20420;-76
2021/06/27 10:22:38;;;;;;;2.00;1.80;;;24.70;56.00;;;;;;5018312;28;20090;-76
2021/06/27 10:25:08;;;;;;;4.30;2.25;;;24.90;53.60;;;;;;5017574;28;20026;-76
2021/06/27 10:27:34;;;;;;;2.45;1.90;;;24.90;56.60;;;;;;5017595;28;20020;-76
2021/06/27 10:30:03;;;;;;;2.47;1.85;;;24.90;52.30;;;;;;5015535;28;20026;-76
2021/06/27 10:32:28;;;;;;;2.03;1.83;;;24.90;54.50;;;;;;5017025;28;20066;-77
2021/06/27 10:34:55;;;;;;;2.00;1.90;;;25.10;52.90;;;;;;5013263;28;20434;-76
2021/06/27 10:37:38;;;;;;;2.13;1.90;;;25.20;53.20;;;;;;5019021;28;20033;-76
2021/06/27 10:40:06;;;;;;;2.35;1.88;;;25.20;54.00;;;;;;5015760;28;20041;-76
2021/06/27 10:42:50;;;;;;;2.33;1.58;;;25.20;52.20;;;;;;5018784;28;20109;-76
2021/06/27 10:45:22;;;;;;;1.95;1.85;;;25.30;54.20;;;;;;5017481;28;20432;-77
2021/06/27 10:47:49;;;;;;;1.70;1.60;;;25.30;52.20;;;;;;5016277;28;20045;-75
2021/06/27 10:50:16;;;;;;;1.90;1.70;;;25.40;50.90;;;;;;5018231;28;20021;-76
2021/06/27 10:52:51;;;;;;;1.90;1.77;;;25.50;51.20;;;;;;5015783;28;20030;-77
2021/06/27 10:55:17;;;;;;;1.67;1.58;;;25.40;50.00;;;;;;5016054;28;20520;-76
2021/06/27 10:57:54;;;;;;;5.57;2.10;;;25.40;51.30;;;;;;5014974;28;20060;-77
2021/06/27 11:00:20;;;;;;;1.77;1.67;;;25.50;51.60;;;;;;5017948;28;20134;-76
2021/06/27 11:02:46;;;;;;;1.80;1.70;;;25.50;52.80;;;;;;5018111;28;20080;-77
2021/06/27 11:05:33;;;;;;;1.63;1.52;;;25.60;51.20;;;;;;5017085;28;20505;-76
2021/06/27 11:08:00;;;;;;;1.48;1.33;;;25.60;50.20;;;;;;5018567;28;20053;-77
2021/06/27 11:10:27;;;;;;;1.38;1.27;;;25.60;47.20;;;;;;5019277;28;20124;-76
2021/06/27 11:13:01;;;;;;;1.92;1.60;;;25.60;47.70;;;;;;5019500;28;20029;-77
2021/06/27 11:15:38;;;;;;;1.58;1.48;;;25.60;47.70;;;;;;5020499;28;20480;-76
2021/06/27 11:18:08;;;;;;;1.87;1.70;;;25.50;49.80;;;;;;5019662;28;20041;-77
2021/06/27 11:20:55;;;;;;;1.90;1.80;;;25.60;51.90;;;;;;5019483;28;20029;-77
2021/06/27 11:23:46;;;;;;;2.53;2.33;;;25.70;53.40;;;;;;5022281;28;20038;-77
2021/06/27 11:27:06;;;;;;;2.17;2.08;;;25.60;52.80;;;;;;5019395;28;20037;-77
2021/06/27 11:29:32;;;;;;;1.92;1.77;;;25.60;51.60;;;;;;4998580;28;20034;-78
2021/06/27 11:32:04;;;;;;;2.05;1.85;;;25.50;51.00;;;;;;5019519;28;20030;-77
2021/06/27 11:34:34;;;;;;;1.90;1.80;;;25.50;55.80;;;;;;5017302;28;20037;-77
2021/06/27 11:37:15;;;;;;;2.08;1.90;;;25.50;56.60;;;;;;5021680;28;20033;-77
2021/06/27 11:39:45;;;;;;;2.67;2.15;;;25.50;54.20;;;;;;5021595;28;20108;-76
2021/06/27 11:42:26;;;;;;;2.85;1.85;;;25.50;57.40;;;;;;5020259;28;20022;-77
2021/06/27 11:45:07;;;;;;;2.20;2.00;;;25.50;51.70;;;;;;5018221;28;20034;-78
2021/06/27 11:47:36;;;;;;;5.05;2.15;;;25.50;55.80;;;;;;5020167;28;20108;-77
2021/06/27 11:50:27;;;;;;;2.13;1.92;;;25.40;51.20;;;;;;5020682;28;20285;-77
2021/06/27 11:52:53;;;;;;;2.35;1.70;;;25.40;54.70;;;;;;5024645;28;20025;-77
2021/06/27 11:55:30;;;;;;;2.08;1.98;;;25.40;54.70;;;;;;5023636;28;20033;-77
2021/06/27 11:57:56;;;;;;;2.10;2.00;;;25.30;53.80;;;;;;5008217;28;20112;-77
2021/06/27 12:00:42;;;;;;;2.75;2.05;;;25.30;53.90;;;;;;5002489;28;20115;-78
2021/06/27 12:03:13;;;;;;;1.63;1.52;;;25.30;52.30;;;;;;5024443;28;20030;-77
2021/06/27 12:05:40;;;;;;;2.03;1.80;;;25.40;52.30;;;;;;5018138;28;20389;-76
2021/06/27 12:08:08;;;;;;;2.17;1.67;;;25.40;50.80;;;;;;5022689;28;20033;-76
2021/06/27 12:10:35;;;;;;;1.60;1.50;;;25.50;49.60;;;;;;5024112;28;20757;-75
2021/06/27 12:13:03;;;;;;;1.90;1.70;;;25.50;51.70;;;;;;5026919;28;20037;-76
2021/06/27 12:15:34;;;;;;;2.53;1.83;;;25.50;47.90;;;;;;5026490;28;20126;-77
2021/06/27 12:18:05;;;;;;;1.80;1.70;;;25.50;55.60;;;;;;5024761;28;20032;-77
2021/06/27 12:20:42;;;;;;;4.00;1.67;;;25.60;54.90;;;;;;5024114;28;20026;-77
2021/06/27 12:23:26;;;;;;;2.75;1.67;;;25.60;52.20;;;;;;5021259;28;20547;-76
2021/06/27 12:25:57;;;;;;;2.13;1.90;;;25.60;53.50;;;;;;5020628;28;20623;-77
2021/06/27 12:28:44;;;;;;;1.70;1.60;;;25.60;54.10;;;;;;5024373;28;20025;-77
2021/06/27 12:31:33;;;;;;;2.80;1.92;;;25.60;49.90;;;;;;5022975;28;20037;-77
2021/06/27 12:34:06;;;;;;;1.80;1.70;;;25.50;53.70;;;;;;5015888;28;20620;-76
2021/06/27 12:36:35;;;;;;;1.73;1.63;;;25.40;55.00;;;;;;5023634;28;20017;-78
2021/06/27 12:39:05;;;;;;;2.35;1.98;;;25.50;54.40;;;;;;5021480;28;21088;-75
2021/06/27 12:41:33;;;;;;;2.10;1.90;;;25.50;53.90;;;;;;5021945;28;20476;-77
2021/06/27 12:44:07;;;;;;;3.95;1.90;;;25.60;54.50;;;;;;5023934;28;20022;-77
2021/06/27 12:46:50;;;;;;;1.73;1.63;;;25.60;51.40;;;;;;5022803;28;20040;-77
2021/06/27 12:49:29;;;;;;;2.35;1.50;;;25.60;52.10;;;;;;5024667;28;20041;-78
2021/06/27 12:52:02;;;;;;;1.92;1.63;;;25.50;52.10;;;;;;5025417;28;20029;-77
2021/06/27 12:54:33;;;;;;;1.98;1.63;;;25.50;52.50;;;;;;5024111;28;20108;-77